Time;durP1;ratioP1;P1;durP2;ratioP2;P2;SDS_P1;SDS_P2;PMS_P1;PMS_P2;Temp;Humidity;BMP_temperature;BMP_pressure;BME280_temperature;BME280_humidity;BME280_pressure;Samples;Min_cycle;Max_cycle;Signal;HPM_P1;HPM_P2
2024/01/16 00:01:09;;;;;;;19.80;18.90;;;;;;;-141.02;100.00;38559.53;5113735;28;20232;-76
2024/01/16 00:03:37;;;;;;;19.17;18.27;;;;;;;-141.02;100.00;38471.34;5113619;28;20747;-76
2024/01/16 00:06:04;;;;;;;15.50;14.90;;;;;;;-141.02;100.00;38408.06;5113597;28;20219;-77
2024/01/16 00:08:32;;;;;;;14.80;14.20;;;;;;;-141.02;100.00;38394.66;5113237;28;20284;-77
2024/01/16 00:10:59;;;;;;;17.07;16.37;;;;;;;-141.02;100.00;38362.06;5097064;28;20287;-77
2024/01/16 00:13:26;;;;;;;16.00;15.40;;;;;;;-141.02;100.00;38400.41;5093175;28;20194;-77
2024/01/16 00:15:53;;;;;;;14.00;13.50;;;;;;;-141.02;100.00;38440.66;5092836;28;20313;-76
2024/01/16 00:18:20;;;;;;;14.33;13.80;;;;;;;-141.02;100.00;38494.34;5092542;28;20285;-75
2024/01/16 00:20:47;;;;;;;15.10;14.60;;;;;;;-141.02;100.00;38480.94;5097213;28;20201;-77
2024/01/16 00:23:14;;;;;;;18.33;17.63;;;;;;;-141.02;100.00;38484.75;5113003;28;20193;-76
2024/01/16 00:25:42;;;;;;;14.33;13.77;;;;;;;-141.02;100.00;38480.94;5113281;28;20224;-76
2024/01/16 00:28:09;;;;;;;15.07;14.57;;;;;;;-141.02;100.00;38526.94;5113318;28;20223;-76
2024/01/16 00:30:36;;;;;;;15.87;15.27;;;;;;;-141.02;100.00;38507.78;5112758;28;20223;-76
2024/01/16 00:33:03;;;;;;;18.77;18.03;;;;;;;-141.02;100.00;38511.59;5113206;28;20275;-74
2024/01/16 00:35:30;;;;;;;17.40;16.70;;;;;;;-141.02;100.00;38482.84;5112805;28;20563;-75
2024/01/16 00:37:57;;;;;;;22.33;21.33;;;;;;;-141.02;100.00;38469.44;5113108;28;20236;-74
2024/01/16 00:40:24;;;;;;;22.13;21.13;;;;;;;-141.02;100.00;38465.59;5113083;28;20284;-71
2024/01/16 00:42:53;;;;;;;31.13;29.53;;;;;;;-141.02;100.00;38482.84;5112976;28;20232;-71
2024/01/16 00:45:21;;;;;;;33.40;31.60;;;;;;;-141.02;100.00;38377.41;5110500;28;20196;-70
2024/01/16 00:47:48;;;;;;;39.50;37.40;;;;;;;-141.02;100.00;38444.50;5092631;28;20194;-71
2024/01/16 00:50:15;;;;;;;36.33;34.33;;;;;;;-141.02;100.00;38561.47;5092619;28;20222;-71
2024/01/16 00:52:42;;;;;;;29.97;28.47;;;;;;;-141.02;100.00;38722.50;5092178;28;20320;-71
2024/01/16 00:55:09;;;;;;;25.93;24.63;;;;;;;-141.02;100.00;39048.50;5092237;28;20281;-71
2024/01/16 00:57:36;;;;;;;28.90;27.40;;;;;;;-141.02;100.00;39512.56;5092434;28;20383;-72
2024/01/16 01:00:06;;;;;;;28.87;27.37;;;;;;;-141.02;100.00;40291.31;5092106;28;20628;-71
2024/01/16 01:02:33;;;;;;;32.20;30.50;;;;;;;-141.02;100.00;41300.50;5092404;28;20255;-71
2024/01/16 01:05:00;;;;;;;25.20;23.70;;;;;;;-141.02;100.00;43056.72;5092393;28;20666;-71
2024/01/16 01:07:27;;;;;;;25.53;24.03;;;;;;;-141.02;100.00;46458.53;5092193;28;20225;-72
2024/01/16 01:09:54;;;;;;;28.80;27.20;;;;;;;-141.02;100.00;49546.38;5092617;28;20189;-70
2024/01/16 01:12:21;;;;;;;27.60;26.00;;;;;;;-141.02;100.00;52124.94;5101218;28;20216;-71
2024/01/16 01:14:48;;;;;;;25.17;23.77;;;;;;;-141.02;100.00;55526.28;5112708;28;20197;-70
2024/01/16 01:17:16;;;;;;;23.00;21.73;;;;;;;-141.02;100.00;58240.56;5112367;28;20224;-70
2024/01/16 01:19:43;;;;;;;26.23;24.77;;;;;;;-141.02;100.00;59968.94;5112633;28;20196;-71
2024/01/16 01:22:10;;;;;;;25.00;23.60;;;;;;;-141.02;100.00;60957.00;5112616;28;20239;-71
2024/01/16 01:24:37;;;;;;;26.90;25.40;;;;;;;-141.02;100.00;62192.44;5112535;28;20225;-71
2024/01/16 01:27:05;;;;;;;22.13;20.93;;;;;;;-141.02;100.00;62686.75;5112244;28;20282;-70
2024/01/16 01:29:32;;;;;;;23.27;22.07;;;;;;;-141.02;100.00;63675.59;5114099;28;20196;-70
2024/01/16 01:31:59;;;;;;;23.00;21.80;;;;;;;-141.02;100.00;63922.84;5116688;28;20337;-70
2024/01/16 01:34:28;;;;;;;24.50;23.20;;;;;;;-141.02;100.00;62192.44;5116700;28;20235;-70
2024/01/16 01:36:57;;;;;;;20.97;19.87;;;;;;;-141.02;100.00;62933.94;5116596;28;20229;-70
2024/01/16 01:39:24;;;;;;;22.70;21.50;;;;;;;-141.02;100.00;61451.13;5116502;28;20193;-71
2024/01/16 01:41:51;;;;;;;23.00;21.80;;;;;;;-141.02;100.00;60709.94;5116476;28;20283;-71
2024/01/16 01:44:38;;;;;;;22.93;21.73;;;;;;;-141.02;100.00;60709.94;5116317;28;20240;-71
2024/01/16 01:47:06;;;;;;;22.10;20.90;;;;;;;-141.02;100.00;54576.41;5116270;28;20628;-71
2024/01/16 01:49:34;;;;;;;24.17;22.87;;;;;;;-141.02;100.00;52536.94;5116070;28;20672;-71
2024/01/16 01:52:01;;;;;;;28.53;26.93;;;;;;;-141.02;100.00;51016.31;5116209;28;20274;-72
2024/01/16 01:54:28;;;;;;;29.77;28.17;;;;;;;-141.02;100.00;50837.34;5101209;28;20609;-71
2024/01/16 01:56:56;;;;;;;25.13;23.83;;;;;;;-141.02;100.00;51557.09;5095848;28;20225;-72
2024/01/16 01:59:25;;;;;;;26.33;25.00;;;;;;;-141.02;100.00;51607.16;5095468;28;20653;-72
2024/01/16 02:01:53;;;;;;;27.13;25.73;;;;;;;-141.02;100.00;52109.56;5095443;28;20198;-72
2024/01/16 02:04:21;;;;;;;27.67;26.27;;;;;;;-141.02;100.00;52960.53;5095599;28;20198;-72
2024/01/16 02:06:49;;;;;;;26.30;25.10;;;;;;;-141.02;100.00;53291.72;5095648;28;20190;-71
2024/01/16 02:09:16;;;;;;;27.10;25.90;;;;;;;-141.02;100.00;53917.63;5095201;28;20226;-71
2024/01/16 02:11:44;;;;;;;29.70;28.30;;;;;;;-141.02;100.00;54713.19;5095476;28;20634;-71
2024/01/16 02:14:11;;;;;;;29.60;28.20;;;;;;;-141.02;100.00;54979.06;5104279;28;20283;-71
2024/01/16 02:16:40;;;;;;;26.13;24.93;;;;;;;-141.02;100.00;56266.31;5115431;28;20282;-71
2024/01/16 02:19:07;;;;;;;26.63;25.53;;;;;;;-141.02;100.00;56513.03;5115752;28;20623;-72
2024/01/16 02:21:38;;;;;;;29.50;28.20;;;;;;;-141.02;100.00;56513.03;5115337;28;20280;-71
2024/01/16 02:24:09;;;;;;;32.70;31.10;;;;;;;-141.02;100.00;57006.53;5115317;28;20636;-71
2024/01/16 02:26:36;;;;;;;31.00;29.47;;;;;;;-141.02;100.00;56759.78;5115231;28;20662;-70
2024/01/16 02:29:04;;;;;;;23.90;22.70;;;;;;;-141.02;100.00;57253.28;5115804;28;20619;-71
2024/01/16 02:31:31;;;;;;;24.90;23.70;;;;;;;-141.02;100.00;57746.88;5115146;28;20231;-71
2024/01/16 02:33:58;;;;;;;29.17;27.67;;;;;;;-141.02;100.00;57746.88;5111935;28;20284;-70
2024/01/16 02:36:25;;;;;;;30.50;28.90;;;;;;;-141.02;100.00;58240.56;5094978;28;20190;-71
2024/01/16 02:38:53;;;;;;;28.93;27.53;;;;;;;-141.02;100.00;58981.19;5094933;28;20190;-71
2024/01/16 02:41:21;;;;;;;25.27;24.07;;;;;;;-141.02;100.00;59721.97;5094208;28;20289;-71
2024/01/16 02:43:48;;;;;;;28.40;26.90;;;;;;;-141.02;100.00;59228.09;5094606;28;20281;-71
2024/01/16 02:46:15;;;;;;;29.40;27.80;;;;;;;-141.02;100.00;60957.00;5094550;28;20200;-71
2024/01/16 02:48:42;;;;;;;26.10;24.80;;;;;;;-141.02;100.00;60462.94;5094547;28;20348;-71
2024/01/16 02:51:10;;;;;;;27.60;26.30;;;;;;;-141.02;100.00;59721.97;5094891;28;20200;-70
2024/01/16 02:53:36;;;;;;;27.20;25.90;;;;;;;-141.02;100.00;58981.19;5094975;28;20616;-71
2024/01/16 02:56:04;;;;;;;27.03;25.73;;;;;;;-141.02;100.00;58487.41;5114697;28;20193;-70
2024/01/16 02:58:32;;;;;;;24.93;23.73;;;;;;;-141.02;100.00;58487.41;5115100;28;20194;-71
2024/01/16 03:00:59;;;;;;;22.07;21.17;;;;;;;-141.02;100.00;58487.41;5115258;28;20203;-71
2024/01/16 03:03:27;;;;;;;25.10;24.00;;;;;;;-141.02;100.00;57500.06;5114652;28;20292;-71
2024/01/16 03:05:55;;;;;;;23.30;22.30;;;;;;;-141.02;100.00;59968.94;5114854;28;20197;-71
2024/01/16 03:08:22;;;;;;;23.37;22.37;;;;;;;-141.02;100.00;60215.94;5114540;28;20254;-71
2024/01/16 03:10:49;;;;;;;17.63;17.03;;;;;;;-141.02;100.00;59228.09;5114833;28;20220;-72
2024/01/16 03:13:16;;;;;;;20.57;19.67;;;;;;;-141.02;100.00;58981.19;5114384;28;20281;-71
2024/01/16 03:15:45;;;;;;;21.40;20.50;;;;;;;-141.02;100.00;59475.03;5114381;28;20239;-71
2024/01/16 03:18:12;;;;;;;23.00;22.10;;;;;;;-141.02;100.00;59721.97;5114307;28;20197;-71
2024/01/16 03:20:39;;;;;;;19.37;18.70;;;;;;;-141.02;100.00;60215.94;5114538;28;20277;-71
2024/01/16 03:23:06;;;;;;;18.70;18.10;;;;;;;-141.02;100.00;58981.19;5114576;28;20225;-71
2024/01/16 03:25:38;;;;;;;18.17;17.57;;;;;;;-141.02;100.00;61945.31;5114458;27;20254;-71
2024/01/16 03:28:07;;;;;;;19.40;18.63;;;;;;;-141.02;100.00;62933.94;5114456;28;20208;-71
2024/01/16 03:30:36;;;;;;;19.70;19.00;;;;;;;-141.02;100.00;63428.38;5114335;28;20594;-71
2024/01/16 03:33:05;;;;;;;17.90;17.30;;;;;;;-141.02;100.00;60957.00;5114242;28;20220;-72
2024/01/16 03:35:33;;;;;;;14.73;14.23;;;;;;;-141.02;100.00;60957.00;5114268;28;20197;-71
2024/01/16 03:38:00;;;;;;;16.43;15.83;;;;;;;-141.02;100.00;60462.94;5113988;28;20189;-71
2024/01/16 03:40:27;;;;;;;18.13;17.43;;;;;;;-141.02;100.00;59475.03;5113929;27;20199;-72
2024/01/16 03:42:55;;;;;;;19.50;18.70;;;;;;;-141.02;100.00;57500.06;5114162;28;20200;-72
2024/01/16 03:45:23;;;;;;;16.70;16.10;;;;;;;-141.02;100.00;56759.78;5114029;28;20586;-72
2024/01/16 03:47:56;;;;;;;17.47;16.67;;;;;;;-141.02;100.00;51843.91;5113726;28;20659;-72
2024/01/16 03:50:26;;;;;;;21.90;20.80;;;;;;;-141.02;100.00;50646.84;5113738;27;20201;-72
2024/01/16 03:53:05;;;;;;;19.17;18.27;;;;;;;-141.02;100.00;49684.88;5112663;28;20235;-72
2024/01/16 03:55:32;;;;;;;19.43;18.53;;;;;;;-141.02;100.00;48350.13;5113936;27;20201;-72
2024/01/16 03:57:59;;;;;;;19.20;18.20;;;;;;;-141.02;100.00;48061.72;5113744;28;20228;-72
2024/01/16 04:00:26;;;;;;;22.73;21.53;;;;;;;-141.02;100.00;47669.50;5113470;28;20280;-73
2024/01/16 04:02:53;;;;;;;24.27;23.00;;;;;;;-141.02;100.00;47896.34;5114041;28;20223;-72
2024/01/16 04:05:20;;;;;;;19.90;19.10;;;;;;;-141.02;100.00;47698.34;5113760;28;20204;-72
2024/01/16 04:07:49;;;;;;;19.60;18.80;;;;;;;-141.02;100.00;46443.16;5113336;28;20292;-72
2024/01/16 04:10:16;;;;;;;22.93;21.73;;;;;;;-141.02;100.00;46235.59;5113597;28;20194;-72
2024/01/16 04:12:43;;;;;;;20.90;19.80;;;;;;;-141.02;100.00;45190.38;5113188;28;20319;-72
2024/01/16 04:15:10;;;;;;;21.33;20.23;;;;;;;-141.02;100.00;44218.44;5113028;28;20225;-72
2024/01/16 04:17:37;;;;;;;18.73;17.83;;;;;;;-141.02;100.00;43957.25;5113349;28;20283;-72
2024/01/16 04:20:06;;;;;;;18.70;17.80;;;;;;;-141.02;100.00;43749.88;5113170;28;20229;-71
2024/01/16 04:22:34;;;;;;;19.33;18.37;;;;;;;-141.02;100.00;43807.47;5113394;28;20229;-71
2024/01/16 04:25:04;;;;;;;20.43;19.43;;;;;;;-141.02;100.00;43427.28;5113642;28;20254;-72
2024/01/16 04:27:31;;;;;;;17.87;16.97;;;;;;;-141.02;100.00;43511.75;5112922;28;20188;-71
2024/01/16 04:29:58;;;;;;;17.87;17.07;;;;;;;-141.02;100.00;43396.56;5113238;28;20232;-72
2024/01/16 04:32:25;;;;;;;18.53;17.63;;;;;;;-141.02;100.00;43396.56;5113447;28;20250;-72
2024/01/16 04:34:52;;;;;;;17.60;16.80;;;;;;;-141.02;100.00;43638.50;5112825;28;20229;-71
2024/01/16 04:37:19;;;;;;;15.40;14.80;;;;;;;-141.02;100.00;43849.72;5112804;28;20280;-72
2024/01/16 04:39:46;;;;;;;15.00;14.40;;;;;;;-141.02;100.00;43928.44;5112728;28;20201;-72
2024/01/16 04:42:17;;;;;;;16.90;16.10;;;;;;;-141.02;100.00;44640.97;5112731;28;20240;-72
2024/01/16 04:44:44;;;;;;;17.33;16.53;;;;;;;-141.02;100.00;45259.53;5113048;28;20640;-73
2024/01/16 04:47:11;;;;;;;14.93;14.33;;;;;;;-141.02;100.00;45040.53;5113071;28;20263;-72
2024/01/16 04:49:38;;;;;;;14.47;13.97;;;;;;;-141.02;100.00;45244.16;5101259;28;20190;-73
2024/01/16 04:52:06;;;;;;;14.30;13.80;;;;;;;-141.02;100.00;45374.81;5092512;28;20253;-72
2024/01/16 04:54:33;;;;;;;16.17;15.57;;;;;;;-141.02;100.00;45609.19;5092294;28;20193;-72
2024/01/16 04:57:00;;;;;;;15.03;14.43;;;;;;;-141.02;100.00;45989.63;5092186;28;20240;-73
2024/01/16 04:59:28;;;;;;;15.53;14.93;;;;;;;-141.02;100.00;46343.22;5092503;28;20277;-73
2024/01/16 05:01:55;;;;;;;13.60;13.10;;;;;;;-141.02;100.00;46708.38;5092537;28;20190;-73
2024/01/16 05:04:22;;;;;;;13.10;12.60;;;;;;;-141.02;100.00;46823.69;5092307;28;20292;-72
2024/01/16 05:06:51;;;;;;;14.33;13.83;;;;;;;-141.02;100.00;46643.03;5092430;28;20217;-73
2024/01/16 05:09:19;;;;;;;13.50;13.00;;;;;;;-141.02;100.00;46185.66;5092049;28;20269;-72
2024/01/16 05:11:46;;;;;;;13.47;12.97;;;;;;;-141.02;100.00;46116.47;5092039;28;20189;-73
2024/01/16 05:14:13;;;;;;;13.20;12.80;;;;;;;-141.02;100.00;45870.50;5092368;28;20226;-73
2024/01/16 05:16:41;;;;;;;13.47;12.97;;;;;;;-141.02;100.00;45411.31;5091949;28;20233;-72
2024/01/16 05:19:08;;;;;;;13.87;13.37;;;;;;;-141.02;100.00;45078.94;5092282;28;20200;-72
2024/01/16 05:21:35;;;;;;;13.40;12.90;;;;;;;-141.02;100.00;44848.44;5092265;28;20194;-73
2024/01/16 05:24:02;;;;;;;13.50;13.00;;;;;;;-141.02;100.00;44637.16;5092750;28;20212;-72
2024/01/16 05:26:29;;;;;;;14.07;13.57;;;;;;;-141.02;100.00;44266.44;5092225;28;20194;-72
2024/01/16 05:28:56;;;;;;;13.93;13.53;;;;;;;-141.02;100.00;44137.78;5092163;28;20225;-73
2024/01/16 05:31:23;;;;;;;14.10;13.60;;;;;;;-141.02;100.00;43780.59;5092120;28;20288;-72
2024/01/16 05:33:51;;;;;;;14.60;14.10;;;;;;;-141.02;100.00;43565.53;5091744;28;20317;-72
2024/01/16 05:36:18;;;;;;;14.70;14.20;;;;;;;-141.02;100.00;43540.56;5091822;28;20682;-72
2024/01/16 05:38:45;;;;;;;14.67;14.17;;;;;;;-141.02;100.00;43392.72;5091785;28;20285;-72
2024/01/16 05:41:12;;;;;;;14.07;13.67;;;;;;;-141.02;100.00;43415.75;5092123;28;20232;-72
2024/01/16 05:43:39;;;;;;;14.23;13.73;;;;;;;-141.02;100.00;43221.81;5091774;28;20280;-72
2024/01/16 05:46:06;;;;;;;15.17;14.67;;;;;;;-141.02;100.00;43050.97;5092108;28;20200;-72
2024/01/16 05:48:33;;;;;;;13.73;13.33;;;;;;;-141.02;100.00;43108.56;5091784;28;20290;-72
2024/01/16 05:51:01;;;;;;;11.73;11.40;;;;;;;-141.02;100.00;42951.13;5091658;28;20229;-73
2024/01/16 05:53:28;;;;;;;13.43;13.03;;;;;;;-141.02;100.00;42862.81;5091682;28;20272;-73
2024/01/16 05:55:55;;;;;;;12.43;12.03;;;;;;;-141.02;100.00;42559.50;5091634;28;20281;-72
2024/01/16 05:58:22;;;;;;;14.33;13.93;;;;;;;-141.02;100.00;42256.22;5091954;28;20212;-72
2024/01/16 06:00:49;;;;;;;15.20;14.70;;;;;;;-141.02;100.00;41993.28;5091639;28;20777;-72
2024/01/16 06:03:16;;;;;;;12.23;11.83;;;;;;;-141.02;100.00;41722.66;5091898;28;20194;-71
2024/01/16 06:05:43;;;;;;;14.53;14.03;;;;;;;-141.02;100.00;41521.16;5091888;28;20296;-72
2024/01/16 06:08:12;;;;;;;13.50;13.10;;;;;;;-141.02;100.00;41482.78;5091542;28;20244;-72
2024/01/16 06:10:39;;;;;;;13.23;12.83;;;;;;;-141.02;100.00;41434.81;5091492;28;20194;-72
2024/01/16 06:13:06;;;;;;;13.90;13.40;;;;;;;-141.02;100.00;41594.09;5091378;28;20225;-72
2024/01/16 06:15:33;;;;;;;15.90;15.30;;;;;;;-141.02;100.00;41680.44;5093123;28;20291;-72
2024/01/16 06:18:00;;;;;;;13.83;13.33;;;;;;;-141.02;100.00;41759.13;5095543;28;20234;-72
2024/01/16 06:20:28;;;;;;;14.10;13.60;;;;;;;-141.02;100.00;41590.25;5095298;28;20200;-72
2024/01/16 06:22:55;;;;;;;14.20;13.70;;;;;;;-141.02;100.00;42071.97;5095359;28;20627;-72
2024/01/16 06:25:24;;;;;;;14.17;13.67;;;;;;;-141.02;100.00;42632.44;5095262;28;20632;-72
2024/01/16 06:27:51;;;;;;;14.17;13.67;;;;;;;-141.02;100.00;43506.00;5095212;28;20251;-72
2024/01/16 06:30:18;;;;;;;13.30;12.90;;;;;;;-141.02;100.00;43696.09;5095680;28;20284;-72
2024/01/16 06:32:44;;;;;;;13.27;12.87;;;;;;;-141.02;100.00;43619.28;5095054;28;20312;-71
2024/01/16 06:35:14;;;;;;;14.90;14.40;;;;;;;-141.02;100.00;43542.47;5094782;28;20737;-72
2024/01/16 06:37:41;;;;;;;15.40;14.80;;;;;;;-141.02;100.00;43719.13;5094985;28;20224;-71
2024/01/16 06:40:09;;;;;;;14.60;14.10;;;;;;;-141.02;100.00;43120.06;5094693;28;20194;-71
2024/01/16 06:42:37;;;;;;;14.40;13.90;;;;;;;-141.02;100.00;42417.47;5094613;28;20198;-72
2024/01/16 06:45:05;;;;;;;14.23;13.73;;;;;;;-141.02;100.00;42064.28;5094959;28;20631;-72
2024/01/16 06:47:32;;;;;;;14.77;14.27;;;;;;;-141.02;100.00;41845.50;5094656;28;20190;-71
2024/01/16 06:49:59;;;;;;;17.77;17.17;;;;;;;-141.02;100.00;41906.91;5094814;28;20201;-72
2024/01/16 06:52:26;;;;;;;17.50;16.90;;;;;;;-141.02;100.00;41970.25;5094733;28;20255;-72
2024/01/16 06:54:53;;;;;;;18.37;17.67;;;;;;;-141.02;100.00;41945.28;5094429;28;20710;-71
2024/01/16 06:57:20;;;;;;;20.63;19.83;;;;;;;-141.02;100.00;42371.38;5094734;28;20244;-72
2024/01/16 06:59:49;;;;;;;17.07;16.47;;;;;;;-141.02;100.00;42313.81;5105176;28;20235;-72
2024/01/16 07:02:16;;;;;;;18.27;17.57;;;;;;;-141.02;100.00;41839.72;5114634;28;20280;-72
2024/01/16 07:04:43;;;;;;;17.57;16.97;;;;;;;-141.02;100.00;41381.09;5114955;28;20284;-72
2024/01/16 07:07:10;;;;;;;16.77;16.17;;;;;;;-141.02;100.00;41903.06;5114510;28;20236;-72
2024/01/16 07:09:37;;;;;;;17.93;17.23;;;;;;;-141.02;100.00;42189.03;5114529;28;20199;-73
2024/01/16 07:12:05;;;;;;;19.60;18.83;;;;;;;-141.02;100.00;42503.84;5114445;28;20675;-72
2024/01/16 07:14:32;;;;;;;19.93;19.13;;;;;;;-141.02;100.00;42359.88;5114343;28;20270;-72
2024/01/16 07:17:01;;;;;;;15.87;15.27;;;;;;;-141.02;100.00;42574.88;5114271;28;20271;-72
2024/01/16 07:19:29;;;;;;;16.67;16.07;;;;;;;-141.02;100.00;42624.78;5114367;28;20736;-72
2024/01/16 07:21:56;;;;;;;16.70;16.10;;;;;;;-141.02;100.00;42020.16;5114345;28;20199;-72
2024/01/16 07:24:23;;;;;;;17.47;16.87;;;;;;;-141.02;100.00;41962.56;5114180;28;20228;-72
2024/01/16 07:26:50;;;;;;;17.47;16.87;;;;;;;-141.02;100.00;41743.78;5114489;28;20232;-72
2024/01/16 07:29:17;;;;;;;17.70;17.10;;;;;;;-141.02;100.00;41538.44;5114091;28;20741;-72
2024/01/16 07:31:43;;;;;;;17.20;16.60;;;;;;;-141.02;100.00;41597.94;5114332;28;20204;-73
2024/01/16 07:34:12;;;;;;;15.87;15.37;;;;;;;-141.02;100.00;41705.41;5114230;28;20250;-72
2024/01/16 07:36:39;;;;;;;15.50;15.00;;;;;;;-141.02;100.00;41981.75;5113917;28;20193;-73
2024/01/16 07:39:06;;;;;;;16.03;15.43;;;;;;;-141.02;100.00;42116.09;5113926;28;20197;-73
2024/01/16 07:41:33;;;;;;;16.20;15.60;;;;;;;-141.02;100.00;41860.84;5113849;28;20574;-73
2024/01/16 07:44:00;;;;;;;16.67;16.07;;;;;;;-141.02;100.00;41688.13;5113724;28;20193;-73
2024/01/16 07:46:28;;;;;;;17.80;17.10;;;;;;;-141.02;100.00;41699.63;5113742;28;20278;-73
2024/01/16 07:48:55;;;;;;;16.73;16.03;;;;;;;-141.02;100.00;41596.00;5113625;28;20200;-73
2024/01/16 07:51:23;;;;;;;14.00;13.50;;;;;;;-141.02;100.00;41519.25;5113655;28;20189;-72
2024/01/16 07:54:05;;;;;;;14.40;13.90;;;;;;;-141.02;100.00;41549.94;5113463;28;20226;-73
2024/01/16 07:56:33;;;;;;;14.80;14.30;;;;;;;-141.02;100.00;41459.75;5113951;28;20272;-73
2024/01/16 07:59:01;;;;;;;15.10;14.60;;;;;;;-141.02;100.00;41738.03;5113770;28;20193;-73
2024/01/16 08:01:28;;;;;;;14.33;13.83;;;;;;;-141.02;100.00;41891.56;5113501;28;20250;-73
2024/01/16 08:03:55;;;;;;;15.60;15.00;;;;;;;-141.02;100.00;41983.69;5103047;28;20661;-73
2024/01/16 08:06:24;;;;;;;16.37;15.77;;;;;;;-141.02;100.00;41661.25;5093093;28;20229;-73
2024/01/16 08:08:51;;;;;;;17.00;16.30;;;;;;;-141.02;100.00;41711.16;5093307;28;20236;-73
2024/01/16 08:11:20;;;;;;;15.30;14.70;;;;;;;-141.02;100.00;41565.31;5093255;28;20197;-73
2024/01/16 08:13:47;;;;;;;18.83;18.03;;;;;;;-141.02;100.00;41465.50;5093143;28;20229;-73
2024/01/16 08:16:14;;;;;;;19.33;18.53;;;;;;;-141.02;100.00;41757.22;5092647;28;20229;-72
2024/01/16 08:18:41;;;;;;;18.10;17.20;;;;;;;-141.02;100.00;41899.22;5093136;28;20225;-73
2024/01/16 08:21:08;;;;;;;17.20;16.30;;;;;;;-141.02;100.00;42002.88;5093117;28;20200;-73
2024/01/16 08:23:36;;;;;;;20.37;19.37;;;;;;;-141.02;100.00;41993.28;5092996;28;20197;-73
2024/01/16 08:26:04;;;;;;;19.57;18.57;;;;;;;-141.02;100.00;41830.13;5092725;28;20194;-73
2024/01/16 08:28:31;;;;;;;18.37;17.47;;;;;;;-141.02;100.00;41611.34;5092669;28;20664;-73
2024/01/16 08:30:58;;;;;;;17.53;16.63;;;;;;;-141.02;100.00;41526.91;5092965;28;20272;-73
2024/01/16 08:33:25;;;;;;;16.40;15.70;;;;;;;-141.02;100.00;41534.59;5092533;28;20674;-73
2024/01/16 08:35:52;;;;;;;16.70;16.00;;;;;;;-141.02;100.00;41342.69;5093191;28;20259;-73
2024/01/16 08:38:19;;;;;;;15.50;14.90;;;;;;;-141.02;100.00;41409.88;5092424;28;20281;-73
2024/01/16 08:40:48;;;;;;;15.17;14.57;;;;;;;-141.02;100.00;41480.88;5092757;28;20285;-73
2024/01/16 08:43:15;;;;;;;15.00;14.40;;;;;;;-141.02;100.00;41454.00;5092495;28;20201;-73
2024/01/16 08:45:42;;;;;;;15.10;14.50;;;;;;;-141.02;100.00;41398.34;5092649;28;20222;-73
2024/01/16 08:48:09;;;;;;;15.37;14.77;;;;;;;-141.02;100.00;41196.88;5092723;28;20232;-73
2024/01/16 08:50:36;;;;;;;17.90;17.10;;;;;;;-141.02;100.00;41035.69;5092306;28;20205;-73
2024/01/16 08:53:03;;;;;;;18.27;17.47;;;;;;;-141.02;100.00;40909.06;5092158;28;20229;-73
2024/01/16 08:55:30;;;;;;;18.50;17.70;;;;;;;-141.02;100.00;40985.81;5092530;28;20289;-73
2024/01/16 08:57:58;;;;;;;15.80;15.20;;;;;;;-141.02;100.00;41081.75;5092165;28;20194;-73
2024/01/16 09:00:26;;;;;;;15.60;15.00;;;;;;;-141.02;100.00;41054.88;5092253;28;20301;-72
2024/01/16 09:02:53;;;;;;;15.83;15.23;;;;;;;-141.02;100.00;41127.78;5092476;28;20205;-73
2024/01/16 09:05:21;;;;;;;15.80;15.20;;;;;;;-141.02;100.00;40970.47;5092461;28;20276;-72
2024/01/16 09:07:48;;;;;;;16.17;15.53;;;;;;;-141.02;100.00;41085.59;5092162;28;20651;-73
2024/01/16 09:10:15;;;;;;;15.20;14.60;;;;;;;-141.02;100.00;41206.47;5092423;28;20197;-73
2024/01/16 09:12:42;;;;;;;15.93;15.23;;;;;;;-141.02;100.00;41288.97;5092143;28;20288;-73
2024/01/16 09:15:11;;;;;;;15.67;15.07;;;;;;;-141.02;100.00;41361.91;5091717;28;20684;-73
2024/01/16 09:17:39;;;;;;;16.20;15.50;;;;;;;-141.02;100.00;41118.19;5092294;28;20229;-73
2024/01/16 09:20:08;;;;;;;19.03;18.13;;;;;;;-141.02;100.00;41143.16;5091994;28;20205;-73
2024/01/16 09:22:35;;;;;;;19.03;18.13;;;;;;;-141.02;100.00;41146.97;5092026;28;20769;-73
2024/01/16 09:25:02;;;;;;;20.30;19.30;;;;;;;-141.02;100.00;41035.69;5100801;28;20610;-73
2024/01/16 09:27:29;;;;;;;17.40;16.60;;;;;;;-141.02;100.00;40939.75;5112246;28;20200;-73
2024/01/16 09:29:56;;;;;;;17.50;16.70;;;;;;;-141.02;100.00;40801.63;5112266;28;20199;-73
2024/01/16 09:32:24;;;;;;;16.60;15.90;;;;;;;-141.02;100.00;40792.03;5112520;28;20193;-73
2024/01/16 09:34:51;;;;;;;16.37;15.57;;;;;;;-141.02;100.00;40793.94;5112158;28;20320;-73
2024/01/16 09:37:18;;;;;;;15.47;14.77;;;;;;;-141.02;100.00;40801.63;5112171;28;20829;-73
2024/01/16 09:39:45;;;;;;;15.50;14.80;;;;;;;-141.02;100.00;40770.91;5112226;28;20197;-73
2024/01/16 09:42:13;;;;;;;15.60;14.90;;;;;;;-141.02;100.00;40889.88;5112500;28;20283;-72
2024/01/16 09:44:40;;;;;;;15.43;14.73;;;;;;;-141.02;100.00;40816.97;5112095;28;20705;-72
2024/01/16 09:47:09;;;;;;;16.63;15.90;;;;;;;-141.02;100.00;40788.19;5112431;28;20306;-73
2024/01/16 09:49:39;;;;;;;16.67;15.87;;;;;;;-141.02;100.00;40824.63;5112298;28;20193;-72
2024/01/16 09:52:06;;;;;;;16.20;15.40;;;;;;;-141.02;100.00;40822.72;5116305;28;20201;-73
2024/01/16 09:54:33;;;;;;;17.00;16.10;;;;;;;-141.02;100.00;40820.81;5115927;28;20804;-73
2024/01/16 09:57:03;;;;;;;17.37;16.47;;;;;;;-141.02;100.00;40878.38;5115859;28;20197;-73
2024/01/16 09:59:31;;;;;;;16.33;15.53;;;;;;;-141.02;100.00;40843.81;5116200;27;20250;-72
2024/01/16 10:01:58;;;;;;;17.37;16.57;;;;;;;-141.02;100.00;40901.38;5115745;28;20197;-72
2024/01/16 10:04:25;;;;;;;16.97;16.17;;;;;;;-141.02;100.00;40916.75;5116089;28;20205;-72
2024/01/16 10:06:55;;;;;;;17.13;16.23;;;;;;;-141.02;100.00;40934.00;5115757;28;20759;-73
2024/01/16 10:09:22;;;;;;;18.10;17.10;;;;;;;-141.02;100.00;40918.66;5116027;28;20189;-72
2024/01/16 10:11:51;;;;;;;17.67;16.70;;;;;;;-141.02;100.00;40970.47;5115962;28;20224;-72
2024/01/16 10:14:19;;;;;;;22.00;20.80;;;;;;;-141.02;100.00;41043.38;5116254;28;20225;-72
2024/01/16 10:17:02;;;;;;;22.50;21.20;;;;;;;-141.02;100.00;41005.00;5114035;28;20320;-72
2024/01/16 10:19:30;;;;;;;19.13;18.03;;;;;;;-141.02;100.00;41060.63;5095461;28;20221;-73
2024/01/16 10:22:04;;;;;;;19.23;18.10;;;;;;;-141.02;100.00;41108.59;5095148;28;20190;-72
2024/01/16 10:24:32;;;;;;;19.60;18.50;;;;;;;-141.02;100.00;41005.00;5095063;28;20240;-72
2024/01/16 10:27:02;;;;;;;19.53;18.43;;;;;;;-141.02;100.00;40843.81;5095376;28;20190;-72
2024/01/16 10:29:30;;;;;;;18.90;17.80;;;;;;;-141.02;100.00;40792.03;5095271;28;20641;-72
2024/01/16 10:31:58;;;;;;;17.37;16.37;;;;;;;-141.02;100.00;40851.50;5094930;28;20652;-70
2024/01/16 10:34:25;;;;;;;17.90;16.80;;;;;;;-141.02;100.00;40859.19;5094782;28;20264;-71
2024/01/16 10:36:59;;;;;;;17.57;16.47;;;;;;;-141.02;100.00;40870.69;5094852;28;20666;-72
2024/01/16 10:39:27;;;;;;;17.70;16.60;;;;;;;-141.02;100.00;40859.19;5094758;28;20273;-72
2024/01/16 10:41:58;;;;;;;17.70;16.70;;;;;;;-141.02;100.00;40901.38;5095062;28;20197;-72
2024/01/16 10:44:27;;;;;;;18.40;17.20;;;;;;;-141.02;100.00;40840.00;5095000;28;20267;-72
2024/01/16 10:47:12;;;;;;;18.10;16.90;;;;;;;-141.02;100.00;40832.31;5094988;28;20190;-72
2024/01/16 10:49:39;;;;;;;18.30;17.10;;;;;;;-141.02;100.00;40832.31;5094890;28;20217;-72
2024/01/16 10:52:12;;;;;;;18.37;17.07;;;;;;;-141.02;100.00;40816.97;5094846;28;20284;-72
2024/01/16 10:54:44;;;;;;;18.43;17.13;;;;;;;-141.02;100.00;40747.91;5094419;28;20221;-72
2024/01/16 10:57:12;;;;;;;18.60;17.30;;;;;;;-141.02;100.00;40767.09;5107429;28;20269;-72